Latest Weather Observations for McArthur River Mine

IDD60801

Issued at 8:05 am CST Saturday 1 November 2014 (issued every 30 minutes, with the page automatically refreshed every 10 minutes)

About weather observations | Map of weather stations | Latest weather observations for NT | Other Formats
Station Details ID: 014704 Name: MCARTHUR RIVER MINE AIRPORT Lat: -16.44 Lon: 136.08 Height: 40.0 m
Data from the previous 72 hours. | See also: Recent months at McArthur River Mine
Date/Time
CST
Temp
°C
App
Temp
°C
Dew
Point
Rel
Hum
%
Delta-T
°C
Wind Press
QNH
hPa
Press
MSL
hPa
Rain
since 9 am
mm
Dir
 
Spd
km/h
Gust
km/h
Spd
kts
Gust
kts
01/08:00am 28.0 31.8 24.0 79 2.8 N 11 20 6 11 1011.8 - 0.0
01/07:30am 26.9 31.3 25.7 93 0.8 N 13 19 7 10 1011.5 - 0.0
01/07:00am 25.5 30.6 25.5 100 0.0 N 9 15 5 8 1011.2 - 0.0
01/06:30am 24.6 29.5 24.6 100 0.0 NNE 7 13 4 7 1010.8 - 0.0
01/06:00am 24.1 28.7 24.1 100 0.0 NNE 7 9 4 5 1010.4 1010.1 0.0
01/05:47am 24.0 28.7 24.0 100 0.0 NNE 6 9 3 5 1010.4 - 0.0
01/05:36am 24.0 28.5 24.0 100 0.0 NNE 7 9 4 5 1010.2 - 0.0
01/05:30am 23.9 28.4 23.9 100 0.0 NNE 7 7 4 4 1010.1 - 0.0
01/05:00am 24.0 28.5 24.0 100 0.0 N 7 11 4 6 1009.8 - 0.0
01/04:55am 24.0 28.1 24.0 100 0.0 N 9 11 5 6 1009.8 - 0.0
01/04:44am 24.2 28.8 24.2 100 0.0 NNE 7 9 4 5 1009.6 - 0.0
01/04:30am 24.4 29.2 24.4 100 0.0 N 7 11 4 6 1009.5 - 0.0
01/04:18am 24.6 29.5 24.6 100 0.0 N 7 9 4 5 1009.6 - 0.0
01/04:04am 24.7 29.6 24.7 100 0.0 N 7 9 4 5 1009.7 - 0.0
01/04:00am 24.8 29.8 24.8 100 0.0 N 7 9 4 5 1009.6 - 0.0
01/03:30am 24.7 29.6 24.7 100 0.0 N 7 9 4 5 1009.4 - 0.0
01/03:00am 24.7 29.6 24.4 98 0.2 N 6 7 3 4 1009.4 1009.1 0.0
01/02:30am 25.2 30.0 24.2 94 0.7 N 6 9 3 5 1009.5 - 0.0
01/02:00am 25.3 29.7 23.4 89 1.3 N 6 7 3 4 1009.5 - 0.0
01/01:30am 25.7 30.2 23.7 89 1.4 N 6 7 3 4 1009.6 - 0.0
01/12:30am 26.2 29.9 23.3 84 2.0 N 9 13 5 7 1009.8 - 0.0
01/12:00am 26.8 30.9 23.3 81 2.4 NNE 7 11 4 6 1010.1 1009.8 0.0
 
Date/Time
CST
Temp
°C
App
Temp
°C
Dew
Point
Rel
Hum
%
Delta-T
°C
Wind Press
QNH
hPa
Press
MSL
hPa
Rain
since 9 am
mm
Dir
 
Spd
km/h
Gust
km/h
Spd
kts
Gust
kts
31/11:30pm 27.3 29.9 22.7 76 3.1 NNE 13 20 7 11 1010.2 - 0.0
31/11:00pm 27.7 30.2 22.4 73 3.6 NNE 13 24 7 13 1010.6 - 0.0
31/10:30pm 28.1 30.3 21.9 69 4.2 NNE 13 20 7 11 1010.7 - 0.0
31/10:00pm 28.4 30.6 21.2 65 4.8 NNE 11 17 6 9 1010.6 - 0.0
31/09:30pm 28.8 31.3 21.0 62 5.2 NNE 9 15 5 8 1010.3 - 0.0
31/09:00pm 29.3 31.6 19.9 57 6.2 NE 7 11 4 6 1010.1 1009.8 0.0
31/08:30pm 29.9 30.9 20.2 56 6.4 NE 15 22 8 12 1009.7 - 0.0
31/08:00pm 30.5 31.1 19.5 51 7.2 NE 15 22 8 12 1009.5 - 0.0
31/07:30pm 31.2 31.7 19.2 48 7.8 NE 15 20 8 11 1008.9 - 0.0
31/07:00pm 31.8 31.6 18.4 45 8.7 NE 17 24 9 13 1008.6 - 0.0
31/06:30pm 32.9 32.3 17.5 39 9.9 NE 17 28 9 15 1008.2 - 0.0
31/06:00pm 34.0 33.1 16.8 35 11.0 NE 17 24 9 13 1007.8 1007.5 0.0
31/05:30pm 35.2 34.2 16.5 33 11.9 NNE 17 30 9 16 1007.5 - 0.0
31/05:00pm 36.0 34.3 15.7 30 12.8 N 19 22 10 12 1007.2 - 0.0
31/04:30pm 36.5 35.1 15.6 29 13.2 N 17 26 9 14 1007.0 - 0.0
31/04:00pm 37.1 35.3 15.5 27 13.7 NE 19 26 10 14 1006.9 - 0.0
31/03:30pm 37.3 35.2 15.2 27 13.9 NE 20 30 11 16 1007.0 - 0.0
31/03:00pm 38.1 36.7 13.3 22 15.3 NNE 13 20 7 11 1007.1 1006.8 0.0
31/02:30pm 37.7 35.0 13.0 23 15.1 N 19 32 10 17 1007.4 - 0.0
31/02:00pm 38.3 36.2 13.5 23 15.3 N 17 26 9 14 1007.6 - 0.0
31/01:30pm 37.8 36.1 13.7 23 14.9 ENE 15 26 8 14 1008.1 - 0.0
31/01:00pm 37.5 35.4 14.7 25 14.3 NNE 19 32 10 17 1008.6 - 0.0
31/12:30pm 37.0 34.4 13.7 25 14.4 NNE 20 32 11 17 1009.2 - 0.0
31/12:00pm 37.0 35.4 14.9 27 13.9 NNE 17 30 9 16 1009.6 1009.3 0.0
31/11:30am 35.8 34.2 16.0 30 12.6 N 19 32 10 17 1010.2 - 0.0
31/11:00am 35.1 34.2 16.9 34 11.7 N 17 28 9 15 1010.7 - 0.0
31/10:30am 34.6 33.0 16.4 33 11.6 NNE 20 32 11 17 1011.0 - 0.0
31/10:00am 33.4 32.8 17.5 38 10.2 NNE 17 28 9 15 1011.3 - 0.0
31/09:30am 32.8 33.3 19.3 45 8.9 N 15 24 8 13 1011.6 - 0.0
31/09:00am 30.1 32.2 21.7 60 5.7 N 13 17 7 9 1011.8 1011.5 0.0
31/08:30am 28.9 32.1 23.1 71 4.0 NNE 11 19 6 10 1011.7 - 0.0
31/08:00am 27.3 31.5 25.3 89 1.4 N 13 17 7 9 1011.6 - 0.0
31/07:30am 27.2 32.7 26.1 94 0.8 N 9 17 5 9 1011.2 - 0.0
31/07:00am 26.5 32.4 26.2 98 0.2 NNE 7 9 4 5 1010.9 - 0.0
31/06:30am 25.7 32.2 25.7 100 0.0 N 2 6 1 3 1010.4 - 0.0
31/06:00am 25.6 31.2 24.2 92 1.0 ESE 2 11 1 6 1009.9 1009.6 0.0
31/05:30am 25.1 30.2 22.6 86 1.7 CALM 0 0 0 0 1009.5 - 0.0
31/05:00am 24.0 28.9 22.3 90 1.1 CALM 0 0 0 0 1009.1 - 0.0
31/04:30am 23.3 26.9 22.1 93 0.8 SSE 6 9 3 5 1008.8 - 0.0
31/04:00am 23.4 27.9 21.5 89 1.3 CALM 0 0 0 0 1008.3 - 0.0
31/03:30am 23.7 28.4 22.0 90 1.1 CALM 0 0 0 0 1008.0 - 0.0
31/03:00am 24.1 29.0 22.4 90 1.1 CALM 0 0 0 0 1008.0 1007.7 0.0
31/02:30am 24.4 28.8 21.3 83 2.0 CALM 0 0 0 0 1008.2 - 0.0
31/02:00am 25.5 30.6 22.6 84 2.0 CALM 0 0 0 0 1008.4 - 0.0
31/01:30am 26.0 29.9 22.5 81 2.4 N 6 7 3 4 1008.6 - 0.0
31/01:00am 26.3 30.0 22.2 78 2.8 NNE 6 9 3 5 1009.1 - 0.0
31/12:30am 26.8 30.3 21.8 74 3.3 NNE 6 9 3 5 1009.2 - 0.0
31/12:00am 26.8 29.9 21.1 71 3.8 NE 6 7 3 4 1009.4 1009.1 0.0
 
Date/Time
CST
Temp
°C
App
Temp
°C
Dew
Point
Rel
Hum
%
Delta-T
°C
Wind Press
QNH
hPa
Press
MSL
hPa
Rain
since 9 am
mm
Dir
 
Spd
km/h
Gust
km/h
Spd
kts
Gust
kts
30/11:30pm 27.3 30.1 20.9 68 4.2 NNE 7 11 4 6 1009.6 - 0.0
30/11:00pm 27.7 30.3 20.5 65 4.7 NE 7 11 4 6 1009.7 - 0.0
30/10:30pm 28.0 30.0 20.0 61 5.2 NNE 9 11 5 6 1009.9 - 0.0
30/10:00pm 28.6 30.0 20.3 60 5.5 NNE 13 17 7 9 1009.8 - 0.0
30/09:30pm 28.9 30.8 19.8 58 6.0 NNE 9 20 5 11 1009.6 - 0.0
30/09:00pm 29.5 29.8 19.5 55 6.5 NNE 17 24 9 13 1009.3 1009.0 0.0
30/08:30pm 30.1 30.2 19.2 52 7.1 NNE 17 24 9 13 1009.1 - 0.0
30/08:00pm 30.9 30.7 17.6 45 8.5 NNE 15 26 8 14 1008.8 - 0.0
30/07:30pm 31.7 30.1 16.0 38 9.8 NNE 19 28 10 15 1008.4 - 0.0
30/07:00pm 32.5 30.7 15.5 36 10.6 N 19 26 10 14 1008.1 - 0.0
30/06:30pm 33.4 31.4 14.9 32 11.5 NNE 19 28 10 15 1007.6 - 0.0
30/06:00pm 34.6 32.0 15.0 31 12.2 NNE 22 35 12 19 1007.2 1006.9 0.0
30/05:30pm 35.9 33.0 14.0 27 13.5 NNE 22 33 12 18 1006.8 - 0.0
30/05:00pm 37.5 34.2 14.1 24 14.5 NNE 24 39 13 21 1006.5 - 0.0
30/04:30pm 38.5 35.5 13.7 23 15.4 NNE 22 28 12 15 1006.1 - 0.0
30/04:00pm 38.6 35.6 13.8 23 15.4 N 22 35 12 19 1005.8 - 0.0
30/03:30pm 40.8 38.3 8.1 14 18.9 N 11 20 6 11 1005.9 - 0.0
30/03:00pm 40.0 36.8 8.5 15 18.3 NE 15 28 8 15 1006.3 1006.0 0.0
30/02:30pm 40.3 37.8 9.6 16 18.1 NE 13 20 7 11 1006.7 - 0.0
30/02:00pm 39.4 36.7 8.9 16 17.7 ENE 13 22 7 12 1007.2 - 0.0
30/01:30pm 39.4 36.5 9.8 17 17.4 E 15 20 8 11 1007.8 - 0.0
30/01:00pm 39.1 35.7 10.4 18 17.0 NNE 19 24 10 13 1008.3 - 0.0
30/12:30pm 37.9 36.4 11.8 21 15.7 NNW 11 19 6 10 1009.0 - 0.0
30/12:00pm 37.8 36.7 13.1 23 15.2 NNW 11 20 6 11 1009.5 1009.2 0.0
30/11:30am 36.6 36.8 15.7 29 13.2 NNW 9 20 5 11 1009.9 - 0.0
30/11:00am 35.3 35.8 16.6 33 11.9 NNW 9 20 5 11 1010.6 - 0.0
30/10:30am 34.3 35.4 17.9 37 10.6 NNW 9 17 5 9 1011.1 - 0.0
30/10:00am 33.4 35.2 18.3 40 9.8 W 6 13 3 7 1011.5 - 0.0
30/09:30am 31.8 34.4 20.1 50 7.8 NW 6 9 3 5 1011.9 - 0.0
30/09:00am 30.6 34.0 22.7 62 5.4 W 9 15 5 8 1012.0 1011.7 0.0
30/08:30am 29.2 33.7 23.9 73 3.7 W 7 15 4 8 1011.9 - 0.0
30/08:00am 28.5 33.2 24.9 81 2.5 W 9 13 5 7 1011.8 - 0.0
30/07:30am 27.7 33.3 25.5 88 1.5 WSW 6 9 3 5 1011.8 - 0.0
30/07:00am 26.7 34.1 26.4 98 0.2 CALM 0 0 0 0 1011.5 - 0.0
30/06:30am 25.5 32.3 25.5 100 0.0 CALM 0 0 0 0 1011.3 - 0.0
30/06:28am 25.4 32.1 25.4 100 0.0 CALM 0 0 0 0 1011.3 - 0.0
30/06:10am 25.3 31.9 25.3 100 0.0 CALM 0 0 0 0 1011.1 - 0.0
30/06:00am 25.5 32.1 25.3 99 0.1 CALM 0 0 0 0 1011.0 1010.7 0.0
30/05:30am 25.9 32.8 25.7 99 0.1 CALM 0 0 0 0 1010.8 - 0.0
30/05:00am 26.5 33.7 26.2 98 0.2 CALM 0 4 0 2 1010.5 - 0.0
30/04:30am 26.2 31.7 26.2 100 0.0 N 9 17 5 9 1010.3 - 0.0
30/04:00am 25.9 32.0 25.6 98 0.2 NE 4 7 2 4 1010.2 - 0.0
30/03:30am 25.7 30.8 25.0 96 0.5 N 7 9 4 5 1009.9 - 0.0
30/03:00am 26.0 31.1 25.0 94 0.7 NNE 7 9 4 5 1009.7 1009.4 0.0
30/02:44am 26.0 31.0 24.8 93 0.8 NNE 7 11 4 6 1009.7 - 0.0
30/02:32am 26.2 31.2 24.8 92 1.0 N 7 11 4 6 1009.6 - 0.0
30/02:30am 26.2 31.2 24.8 92 1.0 N 7 11 4 6 1009.7 - 0.0
30/02:00am 26.5 31.4 24.7 90 1.3 N 7 11 4 6 1010.0 - 0.0
30/01:30am 26.7 31.5 24.4 87 1.6 N 7 11 4 6 1010.1 - 0.0
30/01:00am 27.0 31.2 24.1 84 2.0 N 9 13 5 7 1010.4 - 0.0
30/12:30am 27.3 31.3 23.7 81 2.5 N 9 15 5 8 1010.5 - 0.0
30/12:00am 27.7 31.1 23.3 77 3.0 N 11 19 6 10 1010.7 1010.4 0.0
 
Date/Time
CST
Temp
°C
App
Temp
°C
Dew
Point
Rel
Hum
%
Delta-T
°C
Wind Press
QNH
hPa
Press
MSL
hPa
Rain
since 9 am
mm
Dir
 
Spd
km/h
Gust
km/h
Spd
kts
Gust
kts
29/11:30pm 28.1 31.1 21.9 69 4.2 N 9 17 5 9 1011.1 - 0.0
29/11:00pm 28.6 31.3 21.4 65 4.8 NNE 9 13 5 7 1010.9 - 0.0
29/10:30pm 29.1 30.7 20.8 61 5.5 NNE 13 22 7 12 1010.9 - 0.0
29/10:00pm 29.6 31.0 19.6 55 6.5 NNE 11 19 6 10 1010.7 - 0.0
29/09:30pm 30.7 29.8 15.9 40 9.2 NNE 15 20 8 11 1010.3 - 0.0
29/09:00pm 31.2 30.4 17.9 45 8.5 NNE 19 28 10 15 1009.9 1009.6 0.0
29/08:30pm 31.5 31.2 17.4 43 9.0 N 15 20 8 11 1010.0 - 0.0
29/08:00pm 32.2 32.2 17.3 41 9.5 E 13 22 7 12 1011.2 - 0.0
29/07:30pm 32.8 31.2 16.6 38 10.3 NNE 20 30 11 16 1009.7 - 0.0
29/07:00pm 34.4 32.5 15.3 31 11.9 NNE 19 28 10 15 1008.9 - 0.0
29/06:30pm 36.2 33.7 13.6 25 13.9 NNE 19 32 10 17 1008.2 - 0.0
29/06:00pm 37.4 34.5 12.8 23 15.0 N 20 30 11 16 1007.8 1007.5 0.0
29/05:48pm 38.5 33.3 11.5 20 16.2 NE 30 35 16 19 1007.4 - 0.0
29/05:30pm 39.7 37.0 7.2 14 18.4 ENE 11 15 6 8 1007.4 - 0.0
29/05:00pm 40.2 37.2 7.6 14 18.6 SSE 13 19 7 10 1007.4 - 0.0
29/04:30pm 40.2 38.3 7.6 14 18.6 S 7 11 4 6 1007.5 - 0.0
29/04:00pm 40.8 38.3 8.1 14 18.9 S 11 17 6 9 1007.6 - 0.0
29/03:30pm 40.0 37.3 7.4 14 18.6 SSE 11 19 6 10 1007.7 - 0.0
29/03:00pm 39.5 36.6 8.1 15 18.1 SSE 13 17 7 9 1008.0 1007.7 0.0
29/02:30pm 40.3 38.3 8.7 15 18.4 SSE 9 17 5 9 1008.5 - 0.0
29/02:00pm 40.1 37.3 8.5 15 18.3 E 13 20 7 11 1008.9 - 0.0
29/01:30pm 38.7 36.5 9.3 17 17.1 NNW 11 20 6 11 1009.5 - 0.0
29/01:00pm 38.2 36.7 10.5 19 16.4 W 9 13 5 7 1010.3 - 0.0
29/12:30pm 37.9 36.7 10.3 19 16.3 NE 7 17 4 9 1010.8 - 0.0
29/12:00pm 37.1 36.1 11.1 21 15.5 S 7 15 4 8 1011.2 1010.9 0.0
29/11:30am 36.1 35.3 13.0 25 14.0 NNE 9 19 5 10 1011.7 - 0.0
29/11:00am 35.6 35.1 13.7 27 13.4 E 9 13 5 7 1012.2 - 0.0
29/10:30am 34.5 33.8 13.3 27 12.9 N 9 15 5 8 1012.6 - 0.0
29/10:00am 33.8 34.5 17.1 37 10.7 ESE 9 11 5 6 1012.9 - 0.0
29/09:50am 33.3 34.4 17.9 40 9.9 SSE 9 11 5 6 1012.9 - 0.0
29/09:40am 32.2 33.7 18.0 42 9.2 WSW 7 11 4 6 1013.0 - 0.0
29/09:30am 31.3 33.4 19.0 48 8.0 SSW 6 9 3 5 1012.9 - 0.0
29/09:04am 30.2 32.5 20.7 56 6.3 SW 9 15 5 8 1013.3 - 0.0
29/09:00am 30.2 33.1 21.0 58 6.1 WSW 7 11 4 6 1013.3 1013.0 0.0
29/08:46am 30.2 33.2 21.3 59 6.0 SW 7 11 4 6 1013.3 - 0.0
29/08:30am 29.2 31.9 22.2 66 4.7 SSW 11 15 6 8 1013.4 - 0.0

Other Formats:

Comma delimited format used in spreadsheet applications
http://www.bom.gov.au/fwo/IDD60801/IDD60801.94239.axf

JavaScript Object Notation format (JSON) in row-major order
http://www.bom.gov.au/fwo/IDD60801/IDD60801.94239.json